createdAt,value
2018-05-12T00:01:50.354Z,92.60
2018-05-12T00:04:18.667Z,92.80
2018-05-12T00:06:46.973Z,93.30
2018-05-12T00:09:15.310Z,93.30
2018-05-12T00:11:43.623Z,93.10
2018-05-12T00:14:12.724Z,93.20
2018-05-12T00:16:41.798Z,93.60
2018-05-12T00:19:10.148Z,93.60
2018-05-12T00:21:38.471Z,93.60
2018-05-12T00:24:07.597Z,94.20
2018-05-12T00:26:36.668Z,93.70
2018-05-12T00:29:05.768Z,94.10
2018-05-12T00:31:34.866Z,93.90
2018-05-12T00:34:03.959Z,94.00
2018-05-12T00:36:32.286Z,93.70
2018-05-12T00:39:00.602Z,93.90
2018-05-12T00:41:29.020Z,94.00
2018-05-12T00:43:58.101Z,95.00
2018-05-12T00:46:28.207Z,94.70
2018-05-12T00:48:56.530Z,94.80
2018-05-12T00:51:25.627Z,95.00
2018-05-12T00:53:54.694Z,95.00
2018-05-12T00:56:23.032Z,95.00
2018-05-12T00:58:51.396Z,94.80
2018-05-12T01:01:19.761Z,94.80
2018-05-12T01:03:48.840Z,94.50
2018-05-12T01:06:17.160Z,94.50
2018-05-12T01:08:45.486Z,94.70
2018-05-12T01:11:13.793Z,94.90
2018-05-12T01:13:42.985Z,94.80
2018-05-12T01:16:11.260Z,94.80
2018-05-12T01:18:39.628Z,94.80
2018-05-12T01:21:07.970Z,94.90
2018-05-12T01:23:36.315Z,94.90
2018-05-12T01:26:04.647Z,95.00
2018-05-12T01:28:32.958Z,94.90
2018-05-12T01:31:01.288Z,95.00
2018-05-12T01:33:30.383Z,95.40
2018-05-12T01:35:59.490Z,95.50
2018-05-12T01:38:28.572Z,95.40
2018-05-12T01:40:56.920Z,95.40
2018-05-12T01:43:25.232Z,95.40
2018-05-12T01:45:54.370Z,95.40
2018-05-12T01:48:22.680Z,95.40
2018-05-12T01:50:51.037Z,95.50
2018-05-12T01:53:19.393Z,95.60
2018-05-12T01:55:47.732Z,95.50
2018-05-12T01:58:16.076Z,95.60
2018-05-12T02:00:44.389Z,95.40
2018-05-12T02:03:13.660Z,95.60
2018-05-12T02:05:41.976Z,95.70
2018-05-12T02:08:10.309Z,95.90
2018-05-12T02:10:38.626Z,95.80
2018-05-12T02:13:06.957Z,95.90
2018-05-12T02:15:36.118Z,96.10
2018-05-12T02:18:04.466Z,96.10
2018-05-12T02:20:32.777Z,96.20
2018-05-12T02:23:01.098Z,96.00
2018-05-12T02:25:30.236Z,96.00
2018-05-12T02:27:58.554Z,96.00
2018-05-12T02:30:26.951Z,96.30
2018-05-12T02:32:55.250Z,96.30
2018-05-12T02:35:25.319Z,96.40
2018-05-12T02:37:53.633Z,96.40
2018-05-12T02:40:22.141Z,96.80
2018-05-12T02:42:51.213Z,96.70
2018-05-12T02:45:19.555Z,96.70
2018-05-12T02:47:48.954Z,96.80
2018-05-12T02:50:17.299Z,96.70
2018-05-12T02:52:46.496Z,96.70
2018-05-12T02:55:14.909Z,96.80
2018-05-12T02:57:43.379Z,96.80
2018-05-12T03:00:11.832Z,96.90
2018-05-12T03:02:40.167Z,97.20
2018-05-12T03:05:08.877Z,97.10
2018-05-12T03:07:37.784Z,97.50
2018-05-12T03:10:06.279Z,97.10
2018-05-12T03:12:34.703Z,97.20
2018-05-12T03:15:03.003Z,97.00
2018-05-12T03:17:31.342Z,97.00
2018-05-12T03:19:59.668Z,97.20
2018-05-12T03:22:27.997Z,97.10
2018-05-12T03:24:57.817Z,97.50
2018-05-12T03:27:26.152Z,97.50
2018-05-12T03:29:54.464Z,97.60
2018-05-12T03:32:22.874Z,97.60
2018-05-12T03:34:51.960Z,97.50
2018-05-12T03:37:22.799Z,97.70
2018-05-12T03:39:51.115Z,97.70
2018-05-12T03:42:19.432Z,97.70
2018-05-12T03:44:47.768Z,97.60
2018-05-12T03:47:16.908Z,97.40
2018-05-12T03:49:45.260Z,97.40
2018-05-12T03:52:13.571Z,97.30
2018-05-12T03:54:41.911Z,97.20
2018-05-12T03:57:10.222Z,97.40
2018-05-12T03:59:38.584Z,97.40
2018-05-12T04:02:06.897Z,97.40
2018-05-12T04:04:47.330Z,97.80
2018-05-12T04:07:27.487Z,97.50
2018-05-12T04:10:08.508Z,97.30
2018-05-12T04:12:39.312Z,97.30
2018-05-12T04:15:07.650Z,97.20
2018-05-12T04:17:36.712Z,97.20
2018-05-12T04:20:05.038Z,97.20
2018-05-12T04:22:33.369Z,97.40
2018-05-12T04:25:01.806Z,97.40
2018-05-12T04:27:30.117Z,97.40
2018-05-12T04:29:58.425Z,97.40
2018-05-12T04:32:26.777Z,97.40
2018-05-12T04:34:55.081Z,97.50
2018-05-12T04:37:23.415Z,97.10
2018-05-12T04:39:51.738Z,97.10
2018-05-12T04:42:20.075Z,97.10
2018-05-12T04:44:48.374Z,97.00
2018-05-12T04:47:16.765Z,96.80
2018-05-12T04:49:45.092Z,96.90
2018-05-12T04:52:13.431Z,96.90
2018-05-12T04:54:41.747Z,96.80
2018-05-12T04:57:10.074Z,96.70
2018-05-12T04:59:38.399Z,96.50
2018-05-12T05:02:06.744Z,96.50
2018-05-12T05:04:35.155Z,96.40
2018-05-12T05:07:03.465Z,96.40
2018-05-12T05:09:31.824Z,96.10
2018-05-12T05:12:00.129Z,95.60
2018-05-12T05:14:28.435Z,95.70
2018-05-12T05:16:56.775Z,95.40
2018-05-12T05:19:25.123Z,95.20
2018-05-12T05:21:53.448Z,94.80
2018-05-12T05:24:21.853Z,94.40
2018-05-12T05:26:50.935Z,93.80
2018-05-12T05:29:19.247Z,93.80
2018-05-12T05:31:47.591Z,93.70
2018-05-12T05:34:15.937Z,93.60
2018-05-12T05:36:44.259Z,93.50
2018-05-12T05:39:12.563Z,93.30
2018-05-12T05:41:41.002Z,93.20
2018-05-12T05:44:10.031Z,93.00
2018-05-12T05:46:39.151Z,93.10
2018-05-12T05:49:07.484Z,93.10
2018-05-12T05:51:35.835Z,92.90
2018-05-12T05:54:04.183Z,92.50
2018-05-12T05:56:33.279Z,92.10
2018-05-12T05:59:01.621Z,92.10
2018-05-12T06:01:29.939Z,91.80
2018-05-12T06:03:59.023Z,91.20
2018-05-12T06:06:27.376Z,91.20
2018-05-12T06:08:55.707Z,91.00
2018-05-12T06:11:24.770Z,90.10
2018-05-12T06:13:53.114Z,90.10
2018-05-12T06:16:21.439Z,90.00
2018-05-12T06:18:49.760Z,90.30
2018-05-12T06:21:18.076Z,90.60
2018-05-12T06:23:46.427Z,90.40
2018-05-12T06:26:14.730Z,88.80
2018-05-12T06:28:43.162Z,87.00
2018-05-12T06:31:12.282Z,82.90
2018-05-12T06:33:42.352Z,79.90
2018-05-12T06:36:10.684Z,79.80
2018-05-12T06:38:41.035Z,80.40
2018-05-12T06:41:11.043Z,80.90
2018-05-12T06:43:40.284Z,80.90
2018-05-12T06:46:08.686Z,79.20
2018-05-12T06:48:37.010Z,79.60
2018-05-12T06:51:05.547Z,78.50
2018-05-12T06:53:34.195Z,78.50
2018-05-12T06:56:03.581Z,77.30
2018-05-12T06:58:32.409Z,77.30
2018-05-12T07:01:00.822Z,76.70
2018-05-12T07:03:29.132Z,75.40
2018-05-12T07:05:58.215Z,72.20
2018-05-12T07:08:27.326Z,69.20
2018-05-12T07:10:56.403Z,68.20
2018-05-12T07:13:24.768Z,68.20
2018-05-12T07:15:53.126Z,68.70
2018-05-12T07:18:21.458Z,70.50
2018-05-12T07:20:50.546Z,67.00
2018-05-12T07:23:18.892Z,66.90
2018-05-12T07:25:47.211Z,63.40
2018-05-12T07:28:15.561Z,59.80
2018-05-12T07:30:43.879Z,60.70
2018-05-12T07:33:12.239Z,61.50
2018-05-12T07:35:40.566Z,59.40
2018-05-12T07:38:09.636Z,59.00
2018-05-12T07:40:39.480Z,58.90
2018-05-12T07:43:08.564Z,57.40
2018-05-12T07:45:37.708Z,58.50
2018-05-12T07:48:06.043Z,57.70
2018-05-12T07:53:13.267Z,60.60
2018-05-12T07:55:42.386Z,58.60
2018-05-12T07:58:10.695Z,58.60
2018-05-12T08:00:39.021Z,58.30
2018-05-12T08:03:08.104Z,60.90
2018-05-12T08:05:36.450Z,60.80
2018-05-12T08:08:04.760Z,62.50
2018-05-12T08:10:33.910Z,65.60
2018-05-12T08:13:02.228Z,66.40
2018-05-12T08:15:30.545Z,65.30
2018-05-12T08:17:59.632Z,60.00
2018-05-12T08:20:28.721Z,58.50
2018-05-12T08:22:57.062Z,57.50
2018-05-12T08:25:25.409Z,52.50
2018-05-12T08:27:54.520Z,51.80
2018-05-12T08:30:22.847Z,51.80
2018-05-12T08:32:51.187Z,51.40
2018-05-12T08:35:19.518Z,52.20
2018-05-12T08:37:47.868Z,52.10
2018-05-12T08:40:16.187Z,51.40
2018-05-12T08:42:44.498Z,50.80
2018-05-12T08:45:12.838Z,51.80
2018-05-12T08:47:41.162Z,51.50
2018-05-12T08:50:10.295Z,50.00
2018-05-12T08:52:39.211Z,50.00
2018-05-12T08:55:07.570Z,50.90
2018-05-12T08:57:35.893Z,51.60
2018-05-12T09:00:04.301Z,50.30
2018-05-12T09:02:33.392Z,50.60
2018-05-12T09:05:02.705Z,52.10
2018-05-12T09:07:32.066Z,50.20
2018-05-12T09:10:00.751Z,50.20
2018-05-12T09:12:29.185Z,47.00
2018-05-12T09:14:57.510Z,47.00
2018-05-12T09:17:25.860Z,46.70
2018-05-12T09:19:54.180Z,45.60
2018-05-12T09:22:22.607Z,45.00
2018-05-12T09:24:50.940Z,42.40
2018-05-12T09:27:19.270Z,42.70
2018-05-12T09:29:48.358Z,43.30
2018-05-12T09:32:17.460Z,44.30
2018-05-12T09:34:46.552Z,44.80
2018-05-12T09:37:14.909Z,44.70
2018-05-12T09:39:43.344Z,42.60
2018-05-12T09:42:11.740Z,41.40
2018-05-12T09:44:40.067Z,40.70
2018-05-12T09:47:08.370Z,40.50
2018-05-12T09:49:37.477Z,40.90
2018-05-12T09:52:06.558Z,40.20
2018-05-12T09:54:34.896Z,40.10
2018-05-12T09:57:03.251Z,41.00
2018-05-12T09:59:32.278Z,39.50
2018-05-12T10:02:00.597Z,39.00
2018-05-12T10:04:30.209Z,39.60
2018-05-12T10:06:59.434Z,37.10
2018-05-12T10:09:29.511Z,37.40
2018-05-12T10:11:57.989Z,37.40
2018-05-12T10:14:26.615Z,38.70
2018-05-12T10:16:55.677Z,40.20
2018-05-12T10:19:24.124Z,38.50
2018-05-12T10:21:52.635Z,39.90
2018-05-12T10:24:22.182Z,41.70
2018-05-12T10:26:50.511Z,41.30
2018-05-12T10:29:18.822Z,40.80
2018-05-12T10:31:47.324Z,39.30
2018-05-12T10:34:15.771Z,38.80
2018-05-12T10:36:44.102Z,40.10
2018-05-12T10:39:12.431Z,39.00
2018-05-12T10:41:40.777Z,41.10
2018-05-12T10:44:10.127Z,41.70
2018-05-12T10:46:38.471Z,41.70
2018-05-12T10:49:06.804Z,43.30
2018-05-12T10:51:35.149Z,44.70
2018-05-12T10:54:03.470Z,43.80
2018-05-12T10:56:31.949Z,43.20
2018-05-12T10:59:00.299Z,43.30
2018-05-12T11:01:28.631Z,44.90
2018-05-12T11:03:56.979Z,44.40
2018-05-12T11:06:25.333Z,45.20
2018-05-12T11:08:54.593Z,46.40
2018-05-12T11:11:24.601Z,45.80
2018-05-12T11:13:52.981Z,45.80
2018-05-12T11:16:21.337Z,45.60
2018-05-12T11:18:49.674Z,46.30
2018-05-12T11:21:18.011Z,45.80
2018-05-12T11:23:46.385Z,43.40
2018-05-12T11:26:14.709Z,44.50
2018-05-12T11:28:43.994Z,43.50
2018-05-12T11:31:12.350Z,43.50
2018-05-12T11:33:40.670Z,41.60
2018-05-12T11:36:09.003Z,42.10
2018-05-12T11:38:37.759Z,41.80
2018-05-12T11:41:06.500Z,41.60
2018-05-12T11:43:35.866Z,39.70
2018-05-12T11:46:04.566Z,38.70
2018-05-12T11:48:33.988Z,39.10
2018-05-12T11:51:02.648Z,39.10
2018-05-12T11:53:31.061Z,38.50
2018-05-12T11:55:59.403Z,39.00
2018-05-12T11:58:27.897Z,39.60
2018-05-12T12:00:56.345Z,41.20
2018-05-12T12:03:25.024Z,40.80
2018-05-12T12:05:53.841Z,41.10
2018-05-12T12:08:23.517Z,43.70
2018-05-12T12:10:52.127Z,43.70
2018-05-12T12:13:20.716Z,43.20
2018-05-12T12:15:49.055Z,42.50
2018-05-12T12:18:17.413Z,42.30
2018-05-12T12:20:46.526Z,43.40
2018-05-12T12:23:15.632Z,42.80
2018-05-12T12:25:44.061Z,42.80
2018-05-12T12:28:12.407Z,42.40
2018-05-12T12:30:40.748Z,41.10
2018-05-12T12:33:09.845Z,41.00
2018-05-12T12:35:38.160Z,41.00
2018-05-12T12:38:07.253Z,42.30
2018-05-12T12:40:36.325Z,41.60
2018-05-12T12:43:05.415Z,40.90
2018-05-12T12:45:33.887Z,40.90
2018-05-12T12:48:02.210Z,40.80
2018-05-12T12:50:31.299Z,40.90
2018-05-12T12:52:59.604Z,40.90
2018-05-12T12:55:27.954Z,41.60
2018-05-12T12:57:56.269Z,41.20
2018-05-12T13:00:24.606Z,43.10
2018-05-12T13:02:52.987Z,44.30
2018-05-12T13:05:21.335Z,46.10
2018-05-12T13:07:49.645Z,46.40
2018-05-12T13:10:18.224Z,46.50
2018-05-12T13:12:46.581Z,46.80
2018-05-12T13:15:15.766Z,46.90
2018-05-12T13:17:44.201Z,46.70
2018-05-12T13:20:13.256Z,43.90
2018-05-12T13:22:41.610Z,44.40
2018-05-12T13:25:11.034Z,43.80
2018-05-12T13:27:40.123Z,45.60
2018-05-12T13:30:09.229Z,45.80
2018-05-12T13:32:37.689Z,45.80
2018-05-12T13:35:06.187Z,46.30
2018-05-12T13:37:34.837Z,46.40
2018-05-12T13:40:03.217Z,46.60
2018-05-12T13:42:31.571Z,46.60
2018-05-12T13:44:59.896Z,46.50
2018-05-12T13:47:28.225Z,46.40
2018-05-12T13:49:56.543Z,46.40
2018-05-12T13:52:24.873Z,46.20
2018-05-12T13:54:54.004Z,47.10
2018-05-12T13:57:22.325Z,47.10
2018-05-12T13:59:50.647Z,46.80
2018-05-12T14:02:18.975Z,45.80
2018-05-12T14:04:47.295Z,46.30
2018-05-12T14:07:16.462Z,46.80
2018-05-12T14:09:44.791Z,46.70
2018-05-12T14:12:13.159Z,46.10
2018-05-12T14:14:42.237Z,46.50
2018-05-12T14:17:10.574Z,46.50
2018-05-12T14:19:38.871Z,46.80
2018-05-12T14:22:07.216Z,46.50
2018-05-12T14:24:35.581Z,45.80
2018-05-12T14:27:04.648Z,42.30
2018-05-12T14:29:32.986Z,42.20
2018-05-12T14:32:01.327Z,41.70
2018-05-12T14:34:29.662Z,40.60
2018-05-12T14:36:57.979Z,41.00
2018-05-12T14:39:26.330Z,41.00
2018-05-12T14:41:54.636Z,40.90
2018-05-12T14:44:22.986Z,41.90
2018-05-12T14:46:51.299Z,42.60
2018-05-12T14:49:19.643Z,43.70
2018-05-12T14:51:47.948Z,42.50
2018-05-12T14:54:16.291Z,43.50
2018-05-12T14:56:44.592Z,43.20
2018-05-12T14:59:12.899Z,42.50
2018-05-12T15:01:41.206Z,43.60
2018-05-12T15:04:10.308Z,43.20
2018-05-12T15:06:39.403Z,41.90
2018-05-12T15:09:07.714Z,41.80
2018-05-12T15:11:36.808Z,41.50
2018-05-12T15:14:05.148Z,41.50
2018-05-12T15:16:33.471Z,40.90
2018-05-12T15:19:02.564Z,42.20
2018-05-12T15:21:31.656Z,42.40
2018-05-12T15:24:00.739Z,42.60
2018-05-12T15:26:29.081Z,42.60
2018-05-12T15:28:57.399Z,43.20
2018-05-12T15:31:26.743Z,43.30
2018-05-12T15:33:55.064Z,42.70
2018-05-12T15:36:23.400Z,43.40
2018-05-12T15:38:51.708Z,44.20
2018-05-12T15:41:20.063Z,45.30
2018-05-12T15:43:48.494Z,46.00
2018-05-12T15:46:16.720Z,46.30
2018-05-12T15:48:45.080Z,47.10
2018-05-12T15:51:14.170Z,48.60
2018-05-12T15:53:42.501Z,48.10
2018-05-12T15:56:10.805Z,48.80
2018-05-12T15:58:39.145Z,48.90
2018-05-12T16:01:08.241Z,49.30
2018-05-12T16:03:37.324Z,50.00
2018-05-12T16:06:05.639Z,49.90
2018-05-12T16:08:33.975Z,49.60
2018-05-12T16:11:02.286Z,50.30
2018-05-12T16:13:30.613Z,50.10
2018-05-12T16:15:59.686Z,50.50
2018-05-12T16:18:28.040Z,50.60
2018-05-12T16:20:58.703Z,51.10
2018-05-12T16:23:27.948Z,51.50
2018-05-12T16:25:57.236Z,51.60
2018-05-12T16:28:25.674Z,51.30
2018-05-12T16:30:54.235Z,51.60
2018-05-12T16:33:22.558Z,51.70
2018-05-12T16:35:51.805Z,51.60
2018-05-12T16:38:20.268Z,51.60
2018-05-12T16:40:48.602Z,51.70
2018-05-12T16:43:16.926Z,51.70
2018-05-12T16:45:45.274Z,52.10
2018-05-12T16:48:13.594Z,52.30
2018-05-12T16:50:42.011Z,52.20
2018-05-12T16:53:10.289Z,52.30
2018-05-12T16:55:38.628Z,52.70
2018-05-12T16:58:06.968Z,53.20
2018-05-12T17:00:36.051Z,52.70
2018-05-12T17:03:05.192Z,52.80
2018-05-12T17:05:33.534Z,52.80
2018-05-12T17:08:01.947Z,52.70
2018-05-12T17:10:30.325Z,52.70
2018-05-12T17:12:58.654Z,52.70
2018-05-12T17:15:27.036Z,52.90
2018-05-12T17:17:55.418Z,53.30
2018-05-12T17:20:23.753Z,53.50
2018-05-12T17:22:52.085Z,53.40
2018-05-12T17:25:20.388Z,53.70
2018-05-12T17:27:49.487Z,54.10
2018-05-12T17:30:17.842Z,53.90
2018-05-12T17:32:46.192Z,54.20
2018-05-12T17:35:14.522Z,54.50
2018-05-12T17:37:42.846Z,54.50
2018-05-12T17:40:11.170Z,54.70
2018-05-12T17:42:39.477Z,54.90
2018-05-12T17:45:07.827Z,54.80
2018-05-12T17:47:36.137Z,55.70
2018-05-12T17:50:04.561Z,55.30
2018-05-12T17:52:32.916Z,55.10
2018-05-12T17:55:02.055Z,55.50
2018-05-12T17:57:30.417Z,55.50
2018-05-12T17:59:58.761Z,55.70
2018-05-12T18:02:27.097Z,55.90
2018-05-12T18:04:55.409Z,56.00
2018-05-12T18:07:23.765Z,56.10
2018-05-12T18:09:52.104Z,56.50
2018-05-12T18:12:21.218Z,56.90
2018-05-12T18:14:50.287Z,57.30
2018-05-12T18:17:20.210Z,57.80
2018-05-12T18:19:49.364Z,58.50
2018-05-12T18:22:17.752Z,58.40
2018-05-12T18:24:46.095Z,58.70
2018-05-12T18:27:15.168Z,59.30
2018-05-12T18:29:43.496Z,59.30
2018-05-12T18:32:11.818Z,59.80
2018-05-12T18:34:40.160Z,60.10
2018-05-12T18:37:08.483Z,60.40
2018-05-12T18:39:36.870Z,60.70
2018-05-12T18:42:05.195Z,61.60
2018-05-12T18:44:33.534Z,61.90
2018-05-12T18:47:01.896Z,62.50
2018-05-12T18:49:30.242Z,63.10
2018-05-12T18:51:58.575Z,63.40
2018-05-12T18:54:26.956Z,63.70
2018-05-12T18:56:55.295Z,64.20
2018-05-12T18:59:23.612Z,64.70
2018-05-12T19:01:51.948Z,65.10
2018-05-12T19:04:20.275Z,65.70
2018-05-12T19:06:48.664Z,65.90
2018-05-12T19:09:16.990Z,66.50
2018-05-12T19:14:20.715Z,68.20
2018-05-12T19:16:49.092Z,68.20
2018-05-12T19:19:18.250Z,68.80
2018-05-12T19:21:46.585Z,68.80
2018-05-12T19:24:15.111Z,69.40
2018-05-12T19:26:44.132Z,69.80
2018-05-12T19:29:13.968Z,70.40
2018-05-12T19:31:44.256Z,70.90
2018-05-12T19:34:12.679Z,70.80
2018-05-12T19:36:42.384Z,71.40
2018-05-12T19:39:12.519Z,72.30
2018-05-12T19:41:42.081Z,72.70
2018-05-12T19:44:10.489Z,72.70
2018-05-12T19:46:39.150Z,72.80
2018-05-12T19:49:08.569Z,74.00
2018-05-12T19:51:39.021Z,74.30
2018-05-12T19:54:07.339Z,74.30
2018-05-12T19:56:35.727Z,75.10
2018-05-12T19:59:04.047Z,75.70
2018-05-12T20:01:32.371Z,76.40
2018-05-12T20:04:00.698Z,77.30
2018-05-12T20:06:29.026Z,77.80
2018-05-12T20:08:58.125Z,78.70
2018-05-12T20:11:26.448Z,78.60
2018-05-12T20:13:54.810Z,79.30
2018-05-12T20:16:23.160Z,79.80
2018-05-12T20:18:52.847Z,80.70
2018-05-12T20:21:21.217Z,80.70
2018-05-12T20:23:49.703Z,81.00
2018-05-12T20:26:18.129Z,81.00
2018-05-12T20:28:46.465Z,81.90
2018-05-12T20:31:14.804Z,82.10
2018-05-12T20:33:43.141Z,82.30
2018-05-12T20:36:12.586Z,83.10
2018-05-12T20:38:41.697Z,83.20
2018-05-12T20:41:10.043Z,83.20
2018-05-12T20:43:38.377Z,83.50
2018-05-12T20:46:06.714Z,83.70
2018-05-12T20:48:35.071Z,83.80
2018-05-12T20:51:03.438Z,84.00
2018-05-12T20:53:31.800Z,84.50
2018-05-12T20:56:00.114Z,84.60
2018-05-12T20:58:28.545Z,85.00
2018-05-12T21:00:56.831Z,85.10
2018-05-12T21:03:25.178Z,85.40
2018-05-12T21:05:53.513Z,85.30
2018-05-12T21:08:21.847Z,85.70
2018-05-12T21:10:50.984Z,85.80
2018-05-12T21:13:19.347Z,85.80
2018-05-12T21:15:47.677Z,86.00
2018-05-12T21:18:16.059Z,86.40
2018-05-12T21:20:44.399Z,86.40
2018-05-12T21:23:12.724Z,86.50
2018-05-12T21:25:41.056Z,86.40
2018-05-12T21:28:10.164Z,86.80
2018-05-12T21:30:38.478Z,86.80
2018-05-12T21:33:06.806Z,86.90
2018-05-12T21:35:35.155Z,87.00
2018-05-12T21:38:03.469Z,87.10
2018-05-12T21:40:32.586Z,87.50
2018-05-12T21:43:00.898Z,87.50
2018-05-12T21:45:29.240Z,87.80
2018-05-12T21:47:58.312Z,88.10
2018-05-12T21:50:26.648Z,88.10
2018-05-12T21:52:54.978Z,88.20
2018-05-12T21:55:23.326Z,87.90
2018-05-12T21:57:51.630Z,88.20
2018-05-12T22:00:19.953Z,88.70
2018-05-12T22:02:48.293Z,88.70
2018-05-12T22:05:16.603Z,89.00
2018-05-12T22:07:45.761Z,89.30
2018-05-12T22:10:14.042Z,89.30
2018-05-12T22:12:42.407Z,89.20
2018-05-12T22:15:10.716Z,89.70
2018-05-12T22:17:39.045Z,90.00
2018-05-12T22:20:07.352Z,90.00
2018-05-12T22:22:35.717Z,90.10
2018-05-12T22:25:04.051Z,90.10
2018-05-12T22:27:32.384Z,90.40
2018-05-12T22:30:00.693Z,90.40
2018-05-12T22:32:30.130Z,90.40
2018-05-12T22:34:58.801Z,90.40
2018-05-12T22:37:28.760Z,90.60
2018-05-12T22:39:57.275Z,90.60
2018-05-12T22:42:25.698Z,90.80
2018-05-12T22:44:54.213Z,90.80
2018-05-12T22:47:23.507Z,90.90
2018-05-12T22:49:51.810Z,90.90
2018-05-12T22:52:20.903Z,91.00
2018-05-12T22:54:49.492Z,91.30
2018-05-12T22:57:17.831Z,91.20
2018-05-12T22:59:46.181Z,91.40
2018-05-12T23:02:14.489Z,91.50
2018-05-12T23:04:42.808Z,91.50
2018-05-12T23:07:11.907Z,91.70
2018-05-12T23:09:40.994Z,91.80
2018-05-12T23:12:10.146Z,91.70
2018-05-12T23:14:38.473Z,91.70
2018-05-12T23:17:06.802Z,91.90
2018-05-12T23:19:35.122Z,92.00
2018-05-12T23:22:04.968Z,92.30
2018-05-12T23:24:34.056Z,92.20
2018-05-12T23:27:03.212Z,92.30
2018-05-12T23:29:31.506Z,92.30
2018-05-12T23:31:59.863Z,92.40
2018-05-12T23:34:28.186Z,92.40
2018-05-12T23:36:56.519Z,92.50
2018-05-12T23:39:24.862Z,92.60
2018-05-12T23:41:53.933Z,92.50
2018-05-12T23:44:22.278Z,92.50
2018-05-12T23:46:50.584Z,92.70
2018-05-12T23:49:18.901Z,92.80
2018-05-12T23:51:47.979Z,92.90
2018-05-12T23:54:17.079Z,92.80
2018-05-12T23:56:45.384Z,92.90
2018-05-12T23:59:14.494Z,92.90
